createdAt,value
2018-05-07T00:00:03.517Z,18.4
2018-05-07T00:00:53.317Z,18.4
2018-05-07T00:01:43.642Z,18.5
2018-05-07T00:02:33.424Z,18.5
2018-05-07T00:03:23.780Z,18.5
2018-05-07T00:04:13.570Z,18.5
2018-05-07T00:05:03.929Z,18.5
2018-05-07T00:05:54.394Z,18.5
2018-05-07T00:06:44.029Z,18.5
2018-05-07T00:07:33.890Z,18.5
2018-05-07T00:08:24.148Z,18.5
2018-05-07T00:09:14.549Z,18.5
2018-05-07T00:10:04.322Z,18.5
2018-05-07T00:10:54.392Z,18.4
2018-05-07T00:11:44.726Z,18.4
2018-05-07T00:12:34.558Z,18.4
2018-05-07T00:13:24.567Z,18.4
2018-05-07T00:14:14.662Z,18.4
2018-05-07T00:15:04.669Z,18.4
2018-05-07T00:15:54.175Z,18.4
2018-05-07T00:16:44.816Z,18.4
2018-05-07T00:17:34.584Z,18.4
2018-05-07T00:18:24.969Z,18.4
2018-05-07T00:19:14.997Z,18.4
2018-05-07T00:20:04.812Z,18.4
2018-05-07T00:20:54.849Z,18.4
2018-05-07T00:21:44.638Z,18.4
2018-05-07T00:22:35.156Z,18.4
2018-05-07T00:23:25.322Z,18.4
2018-05-07T00:24:15.428Z,18.4
2018-05-07T00:25:05.481Z,18.4
2018-05-07T00:25:55.241Z,18.4
2018-05-07T00:26:45.606Z,18.4
2018-05-07T00:27:35.688Z,18.4
2018-05-07T00:28:26.069Z,18.4
2018-05-07T00:29:15.781Z,18.4
2018-05-07T00:30:05.304Z,18.3
2018-05-07T00:30:55.948Z,18.3
2018-05-07T00:31:46.050Z,18.3
2018-05-07T00:32:36.048Z,18.3
2018-05-07T00:33:25.551Z,18.3
2018-05-07T00:34:16.234Z,18.3
2018-05-07T00:35:06.402Z,18.3
2018-05-07T00:35:56.291Z,18.3
2018-05-07T00:36:45.801Z,18.3
2018-05-07T00:37:36.418Z,18.3
2018-05-07T00:38:25.991Z,18.3
2018-05-07T00:39:16.563Z,18.3
2018-05-07T00:40:05.783Z,18.3
2018-05-07T00:40:56.684Z,18.3
2018-05-07T00:41:46.750Z,18.3
2018-05-07T00:42:36.537Z,18.3
2018-05-07T00:43:26.310Z,18.3
2018-05-07T00:44:16.941Z,18.3
2018-05-07T00:45:07.027Z,18.2
2018-05-07T00:45:56.503Z,18.2
2018-05-07T00:46:47.138Z,18.2
2018-05-07T00:47:37.217Z,18.2
2018-05-07T00:48:27.245Z,18.1
2018-05-07T00:49:17.302Z,18.1
2018-05-07T00:50:07.364Z,18.1
2018-05-07T00:50:57.512Z,18.1
2018-05-07T00:51:46.952Z,18.1
2018-05-07T00:52:37.569Z,18.1
2018-05-07T00:53:27.692Z,18.1
2018-05-07T00:54:17.428Z,18.1
2018-05-07T00:55:06.929Z,18
2018-05-07T00:55:57.833Z,18
2018-05-07T00:56:47.907Z,18
2018-05-07T00:57:37.961Z,18
2018-05-07T00:58:28.038Z,17.9
2018-05-07T00:59:18.103Z,17.9
2018-05-07T01:00:07.598Z,17.9
2018-05-07T01:00:57.954Z,17.9
2018-05-07T01:01:48.009Z,17.9
2018-05-07T01:02:38.345Z,17.9
2018-05-07T01:03:28.134Z,17.9
2018-05-07T01:04:18.474Z,17.9
2018-05-07T01:05:07.982Z,17.9
2018-05-07T01:05:58.341Z,17.9
2018-05-07T01:06:48.177Z,17.9
2018-05-07T01:07:38.733Z,17.9
2018-05-07T01:08:28.809Z,17.9
2018-05-07T01:09:18.594Z,17.9
2018-05-07T01:10:08.661Z,17.9
2018-05-07T01:10:58.711Z,17.9
2018-05-07T01:11:48.780Z,17.9
2018-05-07T01:12:39.169Z,17.9
2018-05-07T01:13:29.199Z,17.9
2018-05-07T01:14:19.257Z,17.9
2018-05-07T01:15:09.049Z,17.9
2018-05-07T01:15:59.377Z,17.9
2018-05-07T01:16:49.470Z,17.9
2018-05-07T01:17:38.952Z,17.9
2018-05-07T01:18:29.295Z,17.9
2018-05-07T01:19:19.384Z,17.9
2018-05-07T01:20:09.423Z,17.9
2018-05-07T01:20:59.762Z,17.9
2018-05-07T01:21:49.577Z,17.9
2018-05-07T01:22:39.897Z,17.9
2018-05-07T01:23:29.958Z,17.9
2018-05-07T01:24:20.123Z,17.9
2018-05-07T01:25:10.103Z,17.9
2018-05-07T01:25:59.885Z,17.9
2018-05-07T01:26:49.937Z,17.8
2018-05-07T01:27:40.285Z,17.9
2018-05-07T01:28:30.355Z,17.8
2018-05-07T01:29:20.428Z,17.8
2018-05-07T01:30:10.512Z,17.8
2018-05-07T01:31:00.578Z,17.8
2018-05-07T01:31:50.033Z,17.8
2018-05-07T01:32:40.416Z,17.8
2018-05-07T01:33:30.785Z,17.8
2018-05-07T01:34:20.530Z,17.8
2018-05-07T01:35:10.872Z,17.8
2018-05-07T01:36:00.643Z,17.7
2018-05-07T01:36:50.725Z,17.7
2018-05-07T01:37:40.777Z,17.7
2018-05-07T01:38:31.192Z,17.7
2018-05-07T01:39:21.194Z,17.7
2018-05-07T01:40:11.257Z,17.7
2018-05-07T01:41:01.313Z,17.7
2018-05-07T01:41:51.396Z,17.7
2018-05-07T01:42:41.477Z,17.7
2018-05-07T01:43:31.253Z,17.7
2018-05-07T01:44:21.087Z,17.6
2018-05-07T01:45:11.629Z,17.7
2018-05-07T01:46:01.686Z,17.7
2018-05-07T01:46:51.763Z,17.7
2018-05-07T01:47:41.818Z,17.6
2018-05-07T01:48:31.906Z,17.7
2018-05-07T01:49:21.961Z,17.7
2018-05-07T01:50:12.038Z,17.7
2018-05-07T01:51:02.114Z,17.6
2018-05-07T01:51:52.190Z,17.6
2018-05-07T01:52:42.225Z,17.6
2018-05-07T01:53:32.013Z,17.6
2018-05-07T01:54:22.338Z,17.6
2018-05-07T01:55:12.151Z,17.6
2018-05-07T01:56:02.482Z,17.7
2018-05-07T01:56:52.266Z,17.6
2018-05-07T01:57:42.619Z,17.7
2018-05-07T01:58:32.406Z,17.7
2018-05-07T01:59:22.461Z,17.7
2018-05-07T02:00:12.797Z,17.6
2018-05-07T02:01:02.589Z,17.7
2018-05-07T02:01:52.929Z,17.6
2018-05-07T02:02:42.724Z,17.7
2018-05-07T02:03:32.786Z,17.7
2018-05-07T02:04:22.866Z,17.7
2018-05-07T07:27:00.939Z,25.3
2018-05-07T07:27:51.123Z,25.3
2018-05-07T07:28:41.394Z,25.2
2018-05-07T07:29:31.446Z,25.1
2018-05-07T07:30:21.473Z,25.1
2018-05-07T07:31:11.560Z,25
2018-05-07T07:32:01.605Z,24.9
2018-05-07T07:32:51.722Z,24.9
2018-05-07T07:33:42.097Z,24.9
2018-05-07T07:34:31.813Z,25
2018-05-07T07:35:21.908Z,25
2018-05-07T07:36:11.937Z,25
2018-05-07T07:37:02.001Z,25.1
2018-05-07T07:37:52.061Z,25
2018-05-07T07:38:41.880Z,25
2018-05-07T07:39:32.283Z,24.9
2018-05-07T07:40:22.278Z,24.8
2018-05-07T07:41:12.062Z,24.8
2018-05-07T07:42:02.115Z,24.6
2018-05-07T07:42:52.225Z,24.6
2018-05-07T07:43:42.524Z,24.5
2018-05-07T07:44:32.601Z,24.5
2018-05-07T07:45:22.388Z,24.5
2018-05-07T07:46:12.716Z,24.4
2018-05-07T07:47:03.295Z,24.4
2018-05-07T07:47:52.831Z,24.4
2018-05-07T07:48:42.640Z,24.4
2018-05-07T07:49:33.008Z,24.4
2018-05-07T07:50:22.496Z,24.4
2018-05-07T07:51:13.116Z,24.4
2018-05-07T07:52:02.929Z,24.4
2018-05-07T07:52:53.236Z,24.5
2018-05-07T07:53:43.727Z,24.6
2018-05-07T07:54:32.811Z,24.6
2018-05-07T07:55:23.137Z,24.7
2018-05-07T07:56:13.492Z,24.7
2018-05-07T07:57:03.276Z,24.8
2018-05-07T07:57:53.343Z,24.9
2018-05-07T07:58:43.151Z,25
2018-05-07T07:59:33.506Z,25.1
2018-05-07T08:00:23.831Z,25.2
2018-05-07T08:01:13.934Z,25.3
2018-05-07T08:02:03.954Z,25.4
2018-05-07T08:02:53.476Z,25.6
2018-05-07T08:03:44.085Z,25.9
2018-05-07T08:04:33.888Z,26.2
2018-05-07T08:05:24.031Z,26.4
2018-05-07T08:06:14.013Z,26.8
2018-05-07T08:07:04.075Z,27
2018-05-07T08:07:54.121Z,27.3
2018-05-07T08:08:43.895Z,27.5
2018-05-07T08:09:34.557Z,27.7
2018-05-07T08:10:24.656Z,28
2018-05-07T08:11:14.670Z,28.3
2018-05-07T08:12:03.658Z,28.4
2018-05-07T08:12:54.614Z,28.8
2018-05-07T08:13:44.590Z,29.1
2018-05-07T08:14:34.648Z,29.4
2018-05-07T08:15:24.667Z,29.7
2018-05-07T08:16:15.071Z,29.9
2018-05-07T08:17:05.197Z,30.2
2018-05-07T08:17:55.182Z,30.4
2018-05-07T08:18:44.694Z,30.6
2018-05-07T08:19:35.287Z,30.8
2018-05-07T08:20:25.379Z,31
2018-05-07T08:21:15.447Z,31.3
2018-05-07T08:22:05.510Z,31.5
2018-05-07T08:22:55.615Z,31.6
2018-05-07T08:23:45.647Z,31.6
2018-05-07T08:24:35.704Z,31.7
2018-05-07T08:25:25.757Z,31.7
2018-05-07T08:26:15.553Z,31.8
2018-05-07T08:27:05.617Z,31.9
2018-05-07T08:27:55.996Z,32.1
2018-05-07T08:28:46.040Z,32.3
2018-05-07T08:29:35.810Z,32.4
2018-05-07T08:30:26.473Z,32.6
2018-05-07T08:31:15.944Z,32.7
2018-05-07T08:32:06.315Z,32.9
2018-05-07T08:32:56.337Z,33.1
2018-05-07T08:33:46.434Z,33.2
2018-05-07T08:34:36.549Z,33.3
2018-05-07T08:35:26.538Z,33.3
2018-05-07T08:36:16.329Z,33.4
2018-05-07T08:37:06.396Z,33.5
2018-05-07T08:37:56.794Z,33.6
2018-05-07T08:38:46.805Z,33.9
2018-05-07T08:39:36.930Z,34.1
2018-05-07T08:40:26.391Z,34.4
2018-05-07T08:41:16.995Z,34.8
2018-05-07T08:42:06.504Z,35
2018-05-07T08:42:57.148Z,35.4
2018-05-07T08:43:47.218Z,35.9
2018-05-07T08:44:37.260Z,36.4
2018-05-07T08:45:27.318Z,37.2
2018-05-07T08:46:17.099Z,37.9
2018-05-07T08:47:07.458Z,38.2
2018-05-07T08:47:57.531Z,38.3
2018-05-07T08:48:46.727Z,38.3
2018-05-07T08:49:37.736Z,38.3
2018-05-07T08:50:27.453Z,38.1
2018-05-07T08:51:17.774Z,38.1
2018-05-07T08:52:07.585Z,38
2018-05-07T08:52:57.956Z,38
2018-05-07T08:53:47.978Z,38.1
2018-05-07T08:54:38.036Z,38.3
2018-05-07T08:55:28.109Z,38.4
2018-05-07T08:56:18.177Z,38.4
2018-05-07T08:57:08.268Z,38.5
2018-05-07T08:57:58.022Z,38.5
2018-05-07T08:58:48.073Z,38.6
2018-05-07T08:59:38.445Z,38.6
2018-05-07T09:00:28.214Z,38.6
2018-05-07T09:01:18.571Z,38.6
2018-05-07T09:02:09.082Z,38.8
2018-05-07T09:02:58.696Z,38.9
2018-05-07T09:03:48.552Z,39.1
2018-05-07T09:04:38.845Z,39.3
2018-05-07T09:05:28.890Z,39.4
2018-05-07T09:06:18.392Z,39.6
2018-05-07T09:07:08.743Z,39.6
2018-05-07T09:07:59.023Z,39.6
2018-05-07T09:08:49.142Z,39.6
2018-05-07T09:09:39.225Z,39.6
2018-05-07T09:10:29.283Z,39.6
2018-05-07T09:11:19.391Z,39.6
2018-05-07T09:12:09.167Z,39.6
2018-05-07T09:12:58.934Z,39.8
2018-05-07T09:13:49.287Z,39.8
2018-05-07T09:14:39.080Z,39.9
2018-05-07T09:15:29.122Z,40.1
2018-05-07T09:16:19.751Z,40.1
2018-05-07T09:17:09.822Z,40.2
2018-05-07T09:17:59.876Z,40.2
2018-05-07T09:18:49.931Z,40.3
2018-05-07T09:19:40.028Z,40.4
2018-05-07T09:20:29.876Z,40.5
2018-05-07T09:21:19.875Z,40.6
2018-05-07T09:22:09.927Z,40.6
2018-05-07T09:22:59.977Z,40.6
2018-05-07T09:23:49.809Z,40.7
2018-05-07T09:24:40.247Z,40.8
2018-05-07T09:25:30.476Z,40.9
2018-05-07T09:26:20.613Z,41
2018-05-07T09:27:10.338Z,41.1
2018-05-07T09:27:59.819Z,41.1
2018-05-07T09:28:50.741Z,41.1
2018-05-07T09:29:40.805Z,41.1
2018-05-07T09:30:30.864Z,41.2
2018-05-07T09:31:20.936Z,41.3
2018-05-07T09:32:10.433Z,41.4
2018-05-07T09:33:01.073Z,41.4
2018-05-07T09:33:50.571Z,41.4
2018-05-07T09:34:41.208Z,41.5
2018-05-07T09:35:31.247Z,41.6
2018-05-07T09:36:21.318Z,41.8
2018-05-07T09:37:11.108Z,41.8
2018-05-07T09:38:01.172Z,41.8
2018-05-07T09:38:51.533Z,41.9
2018-05-07T09:39:41.582Z,41.9
2018-05-07T09:40:31.643Z,41.9
2018-05-07T09:41:21.738Z,41.9
2018-05-07T09:42:11.796Z,41.9
2018-05-07T09:43:01.424Z,42
2018-05-07T09:43:51.924Z,42
2018-05-07T09:44:41.695Z,42.1
2018-05-07T09:45:31.754Z,42.1
2018-05-07T09:46:22.099Z,42.2
2018-05-07T09:47:12.180Z,42.3
2018-05-07T09:48:01.963Z,42.3
2018-05-07T09:48:52.498Z,42.3
2018-05-07T09:49:42.379Z,42.2
2018-05-07T09:50:32.457Z,42.3
2018-05-07T09:51:22.492Z,42.3
2018-05-07T09:52:12.562Z,42.3
2018-05-07T09:53:02.628Z,42.3
2018-05-07T09:53:52.419Z,42.3
2018-05-07T09:54:42.780Z,42.3
2018-05-07T09:55:32.258Z,42.3
2018-05-07T09:56:22.884Z,42.2
2018-05-07T09:57:12.953Z,42.2
2018-05-07T09:58:03.039Z,42.1
2018-05-07T09:58:53.174Z,41.9
2018-05-07T09:59:43.149Z,41.7
2018-05-07T10:00:32.736Z,41.6
2018-05-07T10:01:23.279Z,41.5
2018-05-07T10:02:13.093Z,41.3
2018-05-07T10:03:03.414Z,41.2
2018-05-07T10:03:53.494Z,41.1
2018-05-07T10:04:43.550Z,40.9
2018-05-07T10:05:33.331Z,40.7
2018-05-07T10:06:23.438Z,40.4
2018-05-07T10:07:13.760Z,40.2
2018-05-07T10:08:03.528Z,39.8
2018-05-07T10:08:53.605Z,39.5
2018-05-07T10:09:43.968Z,39.2
2018-05-07T10:10:33.720Z,38.9
2018-05-07T10:11:23.517Z,38.8
2018-05-07T10:12:14.119Z,38.6
2018-05-07T10:13:04.191Z,38.3
2018-05-07T10:13:53.717Z,38.1
2018-05-07T10:14:44.332Z,37.9
2018-05-07T10:15:34.471Z,37.8
2018-05-07T10:16:24.213Z,37.6
2018-05-07T10:17:14.533Z,37.6
2018-05-07T10:18:04.615Z,37.5
2018-05-07T10:18:54.682Z,37.4
2018-05-07T10:19:44.455Z,37.5
2018-05-07T10:20:34.805Z,37.6
2018-05-07T10:21:24.887Z,37.6
2018-05-07T10:22:14.661Z,37.6
2018-05-07T10:23:04.994Z,37.6
2018-05-07T10:23:54.582Z,37.6
2018-05-07T10:24:45.114Z,37.6
2018-05-07T10:25:34.911Z,37.4
2018-05-07T10:26:25.256Z,37.4
2018-05-07T10:27:15.023Z,37.3
2018-05-07T10:28:55.262Z,85
2018-05-07T10:29:45.207Z,37.3
2018-05-07T10:30:35.587Z,37.3
2018-05-07T10:31:25.667Z,37.6
2018-05-07T10:32:15.684Z,37.7
2018-05-07T10:33:05.487Z,37.8
2018-05-07T10:33:55.844Z,37.9
2018-05-07T10:34:45.930Z,37.9
2018-05-07T10:35:35.688Z,37.9
2018-05-07T10:36:26.049Z,37.9
2018-05-07T10:37:16.097Z,38
2018-05-07T10:38:06.163Z,37.9
2018-05-07T10:38:55.385Z,38.1
2018-05-07T10:39:46.007Z,38.4
2018-05-07T10:40:36.098Z,38.8
2018-05-07T10:41:25.568Z,38.8
2018-05-07T10:42:16.481Z,38.8
2018-05-07T10:43:06.556Z,38.6
2018-05-07T10:43:56.353Z,38.4
2018-05-07T10:44:46.684Z,38.2
2018-05-07T10:45:36.766Z,37.9
2018-05-07T10:46:26.838Z,37.7
2018-05-07T10:47:16.913Z,37.6
2018-05-07T10:48:06.961Z,37.6
2018-05-07T10:48:57.064Z,37.6
2018-05-07T10:49:47.103Z,37.5
2018-05-07T10:50:36.591Z,37.5
2018-05-07T10:51:26.943Z,37.4
2018-05-07T10:52:16.747Z,37.4
2018-05-07T10:53:07.349Z,37.4
2018-05-07T10:53:57.156Z,37.4
2018-05-07T10:54:47.484Z,37.4
2018-05-07T10:55:37.257Z,37.6
2018-05-07T10:56:27.328Z,37.7
2018-05-07T10:57:17.384Z,37.8
2018-05-07T10:58:07.738Z,37.8
2018-05-07T10:58:57.815Z,37.9
2018-05-07T10:59:47.870Z,38
2018-05-07T11:00:37.925Z,37.9
2018-05-07T11:01:28.020Z,37.9
2018-05-07T11:02:17.785Z,37.9
2018-05-07T11:03:07.851Z,37.9
2018-05-07T11:03:57.914Z,37.9
2018-05-07T11:04:47.982Z,38.1
2018-05-07T11:05:38.310Z,38.1
2018-05-07T11:06:28.383Z,38.1
2018-05-07T11:07:18.600Z,38
2018-05-07T11:08:08.511Z,38
2018-05-07T11:08:58.294Z,38
2018-05-07T11:09:48.626Z,37.9
2018-05-07T11:10:38.696Z,37.9
2018-05-07T11:11:28.763Z,37.9
2018-05-07T11:12:18.559Z,37.8
2018-05-07T11:13:08.896Z,37.8
2018-05-07T11:13:58.978Z,37.7
2018-05-07T11:14:49.071Z,37.6
2018-05-07T11:15:38.527Z,37.6
2018-05-07T11:16:28.619Z,37.5
2018-05-07T11:17:19.240Z,37.4
2018-05-07T11:18:08.999Z,37.5
2018-05-07T11:18:59.355Z,37.6
2018-05-07T11:19:49.922Z,37.6
2018-05-07T11:20:39.202Z,37.6
2018-05-07T11:21:29.556Z,37.6
2018-05-07T11:22:19.609Z,37.6
2018-05-07T11:23:09.693Z,37.6
2018-05-07T11:23:59.162Z,37.4
2018-05-07T11:24:49.834Z,37.4
2018-05-07T11:25:39.862Z,37.4
2018-05-07T11:26:29.937Z,37.4
2018-05-07T11:27:19.985Z,37.4
2018-05-07T11:28:10.059Z,37.4
2018-05-07T11:29:00.139Z,37.4
2018-05-07T11:29:50.187Z,37.3
2018-05-07T11:30:39.967Z,37.3
2018-05-07T11:31:30.408Z,37.3
2018-05-07T11:32:20.112Z,37.3
2018-05-07T11:33:10.451Z,37.1
2018-05-07T11:34:00.247Z,37.1
2018-05-07T11:34:50.660Z,37.1
2018-05-07T11:35:40.663Z,37
2018-05-07T11:36:30.728Z,37
2018-05-07T11:37:20.771Z,37.1
2018-05-07T11:38:10.838Z,37.3
2018-05-07T11:39:01.070Z,37.4
2018-05-07T11:39:50.992Z,37.4
2018-05-07T11:40:41.043Z,37.6
2018-05-07T11:41:30.844Z,37.7
2018-05-07T11:42:20.902Z,37.8
2018-05-07T11:43:10.962Z,38
2018-05-07T11:44:00.735Z,38.1
2018-05-07T11:44:50.545Z,38.3
2018-05-07T11:45:41.167Z,38.3
2018-05-07T11:46:30.942Z,38.4
2018-05-07T11:47:21.480Z,38.6
2018-05-07T11:48:11.624Z,38.7
2018-05-07T11:49:01.442Z,38.8
2018-05-07T11:49:51.770Z,38.8
2018-05-07T11:50:41.834Z,38.9
2018-05-07T11:51:31.911Z,39
2018-05-07T11:52:21.977Z,39.1
2018-05-07T11:53:12.522Z,39.1
2018-05-07T11:54:02.081Z,39.2
2018-05-07T11:54:51.890Z,39.3
2018-05-07T11:55:42.244Z,39.3
2018-05-07T11:56:32.009Z,39.3
2018-05-07T11:57:22.359Z,39.3
2018-05-07T11:58:11.858Z,39.4
2018-05-07T11:59:02.204Z,39.4
2018-05-07T11:59:52.538Z,39.6
2018-05-07T12:00:42.695Z,39.8
2018-05-07T12:01:32.663Z,39.8
2018-05-07T12:02:23.163Z,39.9
2018-05-07T12:03:12.830Z,39.9
2018-05-07T12:04:02.322Z,39.9
2018-05-07T12:04:52.936Z,40
2018-05-07T12:05:42.639Z,40.2
2018-05-07T12:06:33.076Z,40.3
2018-05-07T12:07:23.146Z,40.4
2018-05-07T12:08:12.908Z,40.6
2018-05-07T12:09:03.741Z,40.7
2018-05-07T12:09:53.071Z,40.9
2018-05-07T12:10:42.547Z,40.9
2018-05-07T12:11:33.261Z,41
2018-05-07T12:12:23.590Z,41.2
2018-05-07T12:13:12.452Z,41.5
2018-05-07T12:14:03.098Z,41.8
2018-05-07T12:14:53.422Z,41.9
2018-05-07T12:15:43.627Z,42
2018-05-07T12:16:33.856Z,42.1
2018-05-07T12:17:23.347Z,42.1
2018-05-07T12:18:13.964Z,42.2
2018-05-07T12:19:04.114Z,42.3
2018-05-07T12:19:54.109Z,42.1
2018-05-07T12:20:44.181Z,42.2
2018-05-07T12:21:34.242Z,42.1
2018-05-07T12:22:23.744Z,42.1
2018-05-07T12:23:14.801Z,42.2
2018-05-07T12:24:04.519Z,42.3
2018-05-07T12:24:54.204Z,42.3
2018-05-07T12:25:44.572Z,42.4
2018-05-07T12:26:34.084Z,42.4
2018-05-07T12:27:24.699Z,42.5
2018-05-07T12:28:14.552Z,42.8
2018-05-07T12:29:04.531Z,43.2
2018-05-07T12:29:54.917Z,43.6
2018-05-07T12:30:44.953Z,44.3
2018-05-07T12:31:35.050Z,45.3
2018-05-07T12:32:24.797Z,46.5
2018-05-07T12:33:14.855Z,47.3
2018-05-07T12:34:04.945Z,47.6
2018-05-07T12:34:55.012Z,47.8
2018-05-07T12:35:44.792Z,48.1
2018-05-07T12:36:35.453Z,48
2018-05-07T12:37:25.487Z,48.1
2018-05-07T12:38:14.999Z,48
2018-05-07T12:39:05.357Z,47.7
2018-05-07T12:39:55.726Z,47.3
2018-05-07T12:40:45.740Z,47.2
2018-05-07T12:41:35.802Z,47.3
2018-05-07T12:42:25.856Z,47.4
2018-05-07T12:43:15.942Z,47.4
2018-05-07T12:44:05.723Z,47.4
2018-05-07T12:44:56.070Z,47.6
2018-05-07T12:45:46.147Z,47.7
2018-05-07T12:46:36.221Z,47.8
2018-05-07T12:47:26.282Z,47.7
2018-05-07T12:48:16.326Z,47.6
2018-05-07T12:49:06.407Z,47.4
2018-05-07T12:49:56.471Z,47.3
2018-05-07T12:50:46.270Z,47.1
2018-05-07T12:51:36.324Z,46.9
2018-05-07T12:52:27.022Z,46.9
2018-05-07T12:53:16.746Z,46.8
2018-05-07T12:54:06.316Z,46.6
2018-05-07T12:54:56.866Z,46.5
2018-05-07T12:55:46.438Z,46.4
2018-05-07T12:56:37.005Z,46.4
2018-05-07T12:57:26.513Z,46.3
2018-05-07T12:58:16.934Z,46.1
2018-05-07T12:59:07.502Z,46
2018-05-07T12:59:56.418Z,45.9
2018-05-07T13:00:47.327Z,45.9
2018-05-07T13:01:37.398Z,45.9
2018-05-07T13:02:27.472Z,46
2018-05-07T13:03:17.527Z,46.3
2018-05-07T13:04:07.593Z,46.7
2018-05-07T13:04:57.377Z,47.3
2018-05-07T13:05:47.796Z,47.9
2018-05-07T13:06:37.510Z,48.6
2018-05-07T13:07:27.856Z,49.3
2018-05-07T13:08:17.359Z,49.9
2018-05-07T13:09:07.716Z,50.4
2018-05-07T13:09:58.062Z,50.8
2018-05-07T13:10:47.552Z,51.1
2018-05-07T13:11:38.642Z,51.3
2018-05-07T13:12:27.992Z,51.4
2018-05-07T13:13:18.044Z,51.4
2018-05-07T13:14:08.391Z,51.1
2018-05-07T13:14:58.159Z,50.7
2018-05-07T13:15:47.973Z,50.6
2018-05-07T13:16:38.290Z,50.6
2018-05-07T13:17:28.629Z,51
2018-05-07T13:18:18.825Z,51.6
2018-05-07T13:19:08.851Z,52
2018-05-07T13:19:58.829Z,52.3
2018-05-07T13:20:48.911Z,52.6
2018-05-07T13:21:38.968Z,52.6
2018-05-07T13:22:29.016Z,52.4
2018-05-07T13:23:19.092Z,52.3
2018-05-07T13:24:09.258Z,52.3
2018-05-07T13:24:59.581Z,52.3
2018-05-07T13:25:49.287Z,52.5
2018-05-07T13:26:39.071Z,52.7
2018-05-07T13:27:29.145Z,52.7
2018-05-07T13:28:19.221Z,52.8
2018-05-07T13:29:09.547Z,52.8
2018-05-07T13:29:59.335Z,52.9
2018-05-07T13:30:49.477Z,52.7
2018-05-07T13:31:39.749Z,52.5
2018-05-07T13:32:29.832Z,52.5
2018-05-07T13:33:19.671Z,52.4
2018-05-07T13:35:00.055Z,52.4
2018-05-07T13:35:50.095Z,52.3
2018-05-07T13:36:39.866Z,52.2
2018-05-07T13:37:29.957Z,52.2
2018-05-07T13:38:20.303Z,52.2
2018-05-07T13:39:10.082Z,52.1
2018-05-07T13:40:00.138Z,52.1
2018-05-07T13:40:50.219Z,52
2018-05-07T13:41:40.557Z,51.9
2018-05-07T13:42:30.607Z,51.9
2018-05-07T13:43:20.118Z,51.8
2018-05-07T13:44:10.739Z,51.8
2018-05-07T13:45:00.825Z,51.6
2018-05-07T13:45:50.876Z,51.4
2018-05-07T13:46:40.943Z,51.2
2018-05-07T13:47:31.035Z,50.9
2018-05-07T13:48:21.086Z,50.8
2018-05-07T13:49:10.876Z,50.6
2018-05-07T13:50:00.935Z,50.4
2018-05-07T13:50:51.026Z,50.3
2018-05-07T13:51:41.333Z,50.2
2018-05-07T13:52:31.399Z,50.2
2018-05-07T13:53:21.469Z,50.2
2018-05-07T13:54:11.530Z,50.3
2018-05-07T13:55:01.624Z,50.2
2018-05-07T13:55:51.152Z,50.2
2018-05-07T13:56:41.725Z,50.1
2018-05-07T13:57:31.535Z,50
2018-05-07T13:58:21.885Z,49.9
2018-05-07T13:59:11.949Z,49.7
2018-05-07T14:00:01.999Z,49.5
2018-05-07T14:00:52.097Z,49.3
2018-05-07T14:01:42.143Z,49.2
2018-05-07T14:02:32.230Z,49.2
2018-05-07T14:03:21.992Z,49.1
2018-05-07T14:04:12.349Z,49
2018-05-07T14:05:02.396Z,48.9
2018-05-07T14:05:52.453Z,48.8
2018-05-07T14:06:42.253Z,48.7
2018-05-07T14:07:32.594Z,48.6
2018-05-07T14:08:22.711Z,48.3
2018-05-07T14:09:12.744Z,48.1
2018-05-07T14:10:02.541Z,48
2018-05-07T14:10:52.858Z,47.9
2018-05-07T14:11:42.634Z,47.8
2018-05-07T14:12:33.004Z,47.7
2018-05-07T14:13:23.116Z,47.6
2018-05-07T14:14:13.116Z,47.6
2018-05-07T14:15:02.912Z,47.5
2018-05-07T14:15:52.974Z,47.4
2018-05-07T14:16:43.830Z,47.2
2018-05-07T14:17:33.121Z,47.1
2018-05-07T14:18:23.453Z,46.9
2018-05-07T14:19:13.291Z,46.9
2018-05-07T14:20:03.312Z,46.7
2018-05-07T14:20:53.662Z,46.6
2018-05-07T14:21:43.727Z,46.6
2018-05-07T14:22:33.513Z,46.5
2018-05-07T14:23:23.846Z,46.4
2018-05-07T14:24:13.930Z,46.4
2018-05-07T14:25:04.038Z,46.3
2018-05-07T14:25:54.046Z,46.1
2018-05-07T14:26:44.112Z,45.9
2018-05-07T14:27:34.196Z,45.8
2018-05-07T14:28:24.259Z,45.6
2018-05-07T14:29:14.052Z,45.5
2018-05-07T14:30:04.388Z,45.4
2018-05-07T14:30:54.185Z,45.4
2018-05-07T14:31:44.529Z,45.2
2018-05-07T14:32:34.608Z,45
2018-05-07T14:33:24.500Z,44.9
2018-05-07T14:34:13.971Z,44.7
2018-05-07T14:35:04.796Z,44.6
2018-05-07T14:35:54.592Z,44.3
2018-05-07T14:36:44.623Z,44.1
2018-05-07T14:37:34.965Z,44
2018-05-07T14:38:25.054Z,43.9
2018-05-07T14:39:15.111Z,43.8
2018-05-07T14:40:05.196Z,43.6
2018-05-07T14:40:55.255Z,43.4
2018-05-07T15:10:57.633Z,85
2018-05-07T15:11:47.113Z,39.9
2018-05-07T15:12:37.758Z,39.7
2018-05-07T15:13:27.812Z,39.6
2018-05-07T15:14:17.878Z,39.6
2018-05-07T15:15:07.947Z,39.6
2018-05-07T15:15:58.001Z,39.6
2018-05-07T15:16:48.079Z,39.4
2018-05-07T15:17:38.159Z,39.4
2018-05-07T15:18:28.221Z,39.3
2018-05-07T15:19:18.009Z,39.3
2018-05-07T15:20:08.343Z,39.2
2018-05-07T15:20:58.136Z,39
2018-05-07T15:21:48.475Z,38.9
2018-05-07T15:22:38.544Z,38.8
2018-05-07T15:23:29.063Z,38.7
2018-05-07T15:24:18.661Z,38.5
2018-05-07T15:25:08.176Z,38.3
2018-05-07T15:25:58.811Z,38.1
2018-05-07T15:26:48.304Z,38
2018-05-07T15:27:38.669Z,37.9
2018-05-07T15:28:28.734Z,37.8
2018-05-07T15:29:19.590Z,37.8
2018-05-07T15:30:09.150Z,37.6
2018-05-07T15:30:58.922Z,37.6
2018-05-07T15:31:49.281Z,37.5
2018-05-07T15:32:39.344Z,37.5
2018-05-07T15:33:28.541Z,37.4
2018-05-07T15:34:19.462Z,37.4
2018-05-07T15:35:09.542Z,37.3
2018-05-07T15:35:59.323Z,37.2
2018-05-07T15:36:49.396Z,37.1
2018-05-07T15:37:39.724Z,37
2018-05-07T15:38:29.228Z,36.9
2018-05-07T15:39:19.908Z,36.8
2018-05-07T15:40:09.949Z,36.8
2018-05-07T15:40:59.721Z,36.7
2018-05-07T15:41:50.051Z,36.6
2018-05-07T15:42:38.992Z,36.5
2018-05-07T15:43:30.203Z,36.4
2018-05-07T15:44:19.709Z,36.3
2018-05-07T15:45:10.329Z,36.2
2018-05-07T15:46:00.116Z,36
2018-05-07T15:46:50.475Z,35.9
2018-05-07T15:47:40.528Z,35.8
2018-05-07T15:48:30.605Z,35.6
2018-05-07T15:49:21.081Z,35.6
2018-05-07T15:50:10.159Z,35.4
2018-05-07T15:51:00.215Z,35.3
2018-05-07T15:51:50.860Z,35.3
2018-05-07T15:52:40.907Z,35.2
2018-05-07T15:53:30.959Z,35.1
2018-05-07T15:54:21.065Z,35
2018-05-07T15:55:11.101Z,34.9
2018-05-07T15:56:01.817Z,34.9
2018-05-07T15:56:51.231Z,34.8
2018-05-07T15:57:41.047Z,34.8
2018-05-07T15:58:31.409Z,34.8
2018-05-07T15:59:21.435Z,34.8
2018-05-07T16:00:10.960Z,34.7
2018-05-07T16:01:01.288Z,34.6
2018-05-07T16:01:51.644Z,34.6
2018-05-07T16:02:42.088Z,34.6
2018-05-07T16:03:31.493Z,34.5
2018-05-07T16:04:21.568Z,34.5
2018-05-07T16:05:11.346Z,34.4
2018-05-07T16:06:01.998Z,34.4
2018-05-07T16:06:52.056Z,34.4
2018-05-07T16:07:41.578Z,34.3
2018-05-07T16:08:32.233Z,34.3
2018-05-07T16:09:21.964Z,34.2
2018-05-07T16:10:12.284Z,34.1
2018-05-07T16:11:02.373Z,34.1
2018-05-07T16:11:52.518Z,34
2018-05-07T16:12:42.550Z,33.9
2018-05-07T16:13:32.545Z,33.8
2018-05-07T16:14:22.623Z,33.8
2018-05-07T16:15:12.949Z,33.6
2018-05-07T16:16:02.497Z,33.5
2018-05-07T16:16:52.890Z,33.4
2018-05-07T16:17:42.858Z,33.3
2018-05-07T16:18:33.151Z,33.2
2018-05-07T16:19:22.746Z,33.1
2018-05-07T16:20:13.138Z,33
2018-05-07T16:21:02.894Z,32.8
2018-05-07T16:21:53.559Z,32.7
2018-05-07T16:22:43.300Z,32.6
2018-05-07T16:23:34.979Z,32.4
2018-05-07T16:24:23.396Z,32.3
2018-05-07T16:25:13.215Z,32.2
2018-05-07T16:26:03.566Z,32
2018-05-07T16:26:53.628Z,31.8
2018-05-07T16:27:43.673Z,31.7
2018-05-07T16:28:33.722Z,31.5
2018-05-07T16:29:23.528Z,31.4
2018-05-07T16:30:13.586Z,31.3
2018-05-07T16:31:04.189Z,31.2
2018-05-07T16:31:54.024Z,31.1
2018-05-07T16:32:44.057Z,31
2018-05-07T16:33:33.852Z,30.9
2018-05-07T16:34:23.910Z,30.8
2018-05-07T16:35:14.003Z,30.7
2018-05-07T16:36:04.368Z,30.6
2018-05-07T16:36:54.128Z,30.5
2018-05-07T16:37:44.983Z,30.4
2018-05-07T16:38:35.162Z,30.4
2018-05-07T16:39:24.050Z,30.3
2018-05-07T16:40:14.746Z,30.2
2018-05-07T16:41:04.751Z,30.1
2018-05-07T16:41:54.819Z,29.9
2018-05-07T16:42:44.869Z,29.8
2018-05-07T16:43:34.687Z,29.8
2018-05-07T16:44:24.977Z,29.6
2018-05-07T16:45:15.076Z,29.6
2018-05-07T16:46:04.570Z,29.5
2018-05-07T16:46:55.204Z,29.4
2018-05-07T16:47:45.238Z,29.3
2018-05-07T16:48:35.727Z,29.2
2018-05-07T16:49:24.817Z,29.1
2018-05-07T16:50:15.450Z,29
2018-05-07T16:51:05.521Z,28.9
2018-05-07T16:51:54.740Z,28.9
2018-05-07T16:52:45.652Z,28.8
2018-05-07T16:53:35.818Z,28.7
2018-05-07T16:54:26.576Z,28.6
2018-05-07T16:55:15.420Z,28.5
2018-05-07T16:56:05.350Z,28.4
2018-05-07T16:56:55.974Z,28.3
2018-05-07T16:57:46.045Z,28.2
2018-05-07T16:58:35.840Z,28.1
2018-05-07T16:59:26.429Z,28
2018-05-07T17:00:16.237Z,27.9
2018-05-07T17:01:56.373Z,27.8
2018-05-07T17:02:46.470Z,27.7